createdAt,value
2023-03-05T00:02:10.530Z,510.00
2023-03-05T00:06:10.558Z,511.00
2023-03-05T00:10:10.610Z,513.00
2023-03-05T00:14:10.956Z,511.00
2023-03-05T00:18:10.702Z,511.00
2023-03-05T00:22:10.755Z,510.00
2023-03-05T00:26:10.813Z,511.00
2023-03-05T00:30:10.857Z,509.00
2023-03-05T00:34:10.910Z,504.00
2023-03-05T00:38:10.970Z,505.00
2023-03-05T00:42:11.005Z,501.00
2023-03-05T00:46:11.089Z,501.00
2023-03-05T00:50:11.102Z,501.00
2023-03-05T00:54:11.173Z,506.00
2023-03-05T00:58:11.214Z,502.00
2023-03-05T01:02:11.248Z,503.00
2023-03-05T01:06:11.282Z,504.00
2023-03-05T01:10:11.370Z,504.00
2023-03-05T01:14:11.410Z,500.00
2023-03-05T01:18:11.429Z,502.00
2023-03-05T01:22:11.483Z,500.00
2023-03-05T01:26:11.505Z,506.00
2023-03-05T01:30:11.555Z,505.00
2023-03-05T01:34:11.610Z,502.00
2023-03-05T01:38:11.644Z,504.00
2023-03-05T01:42:11.712Z,505.00
2023-03-05T01:46:11.815Z,505.00
2023-03-05T01:50:11.800Z,500.00
2023-03-05T01:54:11.852Z,507.00
2023-03-05T01:58:11.898Z,508.00
2023-03-05T02:02:11.961Z,503.00
2023-03-05T02:06:11.951Z,505.00
2023-03-05T02:10:11.997Z,504.00
2023-03-05T02:14:12.089Z,504.00
2023-03-05T02:18:12.078Z,505.00
2023-03-05T02:22:12.115Z,508.00
2023-03-05T02:26:12.163Z,506.00
2023-03-05T02:30:12.185Z,506.00
2023-03-05T02:34:12.170Z,501.00
2023-03-05T02:38:12.239Z,506.00
2023-03-05T02:42:12.229Z,506.00
2023-03-05T02:46:12.382Z,505.00
2023-03-05T02:50:12.302Z,507.00
2023-03-05T02:54:12.344Z,502.00
2023-03-05T02:58:12.370Z,501.00
2023-03-05T03:02:12.384Z,498.00
2023-03-05T03:06:12.451Z,501.00
2023-03-05T03:10:12.512Z,503.00
2023-03-05T03:14:12.557Z,501.00
2023-03-05T03:18:12.609Z,506.00
2023-03-05T03:22:12.625Z,506.00
2023-03-05T03:26:12.689Z,506.00
2023-03-05T03:30:12.739Z,504.00
2023-03-05T03:34:12.748Z,498.00
2023-03-05T03:38:12.857Z,500.00
2023-03-05T03:42:12.870Z,500.00
2023-03-05T03:46:13.039Z,501.00
2023-03-05T03:50:12.915Z,502.00
2023-03-05T03:54:12.997Z,503.00
2023-03-05T03:58:13.061Z,501.00
2023-03-05T04:02:12.967Z,503.00
2023-03-05T04:06:12.668Z,502.00
2023-03-05T04:10:12.443Z,500.00
2023-03-05T04:14:12.244Z,499.00
2023-03-05T04:18:12.086Z,499.00
2023-03-05T04:22:11.860Z,497.00
2023-03-05T04:26:12.034Z,496.00
2023-03-05T04:30:11.473Z,495.00
2023-03-05T04:34:11.314Z,493.00
2023-03-05T04:38:11.115Z,496.00
2023-03-05T04:42:11.169Z,497.00
2023-03-05T04:46:11.004Z,496.00
2023-03-05T04:50:10.792Z,500.00
2023-03-05T04:54:10.628Z,502.00
2023-03-05T04:58:10.412Z,500.00
2023-03-05T05:02:10.190Z,496.00
2023-03-05T05:06:09.996Z,495.00
2023-03-05T05:10:09.788Z,495.00
2023-03-05T05:14:09.653Z,500.00
2023-03-05T05:18:09.455Z,499.00
2023-03-05T05:22:09.312Z,495.00
2023-03-05T05:26:09.322Z,492.00
2023-03-05T05:30:09.171Z,495.00
2023-03-05T05:34:09.034Z,496.00
2023-03-05T05:38:09.308Z,491.00
2023-03-05T05:42:08.612Z,493.00
2023-03-05T05:46:08.556Z,494.00
2023-03-05T05:50:08.221Z,497.00
2023-03-05T05:54:08.019Z,497.00
2023-03-05T05:58:07.844Z,500.00
2023-03-05T06:02:07.710Z,498.00
2023-03-05T06:06:07.614Z,494.00
2023-03-05T06:10:07.648Z,500.00
2023-03-05T06:14:07.441Z,501.00
2023-03-05T06:18:07.251Z,506.00
2023-03-05T06:22:07.068Z,508.00
2023-03-05T06:26:06.903Z,505.00
2023-03-05T06:30:06.704Z,504.00
2023-03-05T06:34:06.481Z,506.00
2023-03-05T06:38:06.308Z,502.00
2023-03-05T06:42:06.094Z,505.00
2023-03-05T06:46:05.979Z,505.00
2023-03-05T06:50:05.702Z,502.00
2023-03-05T06:54:05.533Z,505.00
2023-03-05T06:58:05.353Z,501.00
2023-03-05T07:02:05.216Z,504.00
2023-03-05T07:06:04.963Z,503.00
2023-03-05T07:10:04.814Z,503.00
2023-03-05T07:14:04.655Z,507.00
2023-03-05T07:18:04.404Z,504.00
2023-03-05T07:22:04.236Z,507.00
2023-03-05T07:26:03.997Z,506.00
2023-03-05T07:30:03.818Z,510.00
2023-03-05T07:34:03.671Z,507.00
2023-03-05T07:38:03.693Z,502.00
2023-03-05T07:42:03.543Z,498.00
2023-03-05T07:46:03.364Z,501.00
2023-03-05T07:50:03.151Z,502.00
2023-03-05T07:54:02.945Z,499.00
2023-03-05T07:58:02.744Z,501.00
2023-03-05T08:02:02.529Z,503.00
2023-03-05T08:06:02.306Z,504.00
2023-03-05T08:10:02.150Z,506.00
2023-03-05T08:14:01.893Z,507.00
2023-03-05T08:18:01.738Z,506.00
2023-03-05T08:22:01.832Z,504.00
2023-03-05T08:26:01.839Z,501.00
2023-03-05T08:30:01.886Z,499.00
2023-03-05T08:34:01.884Z,498.00
2023-03-05T08:38:01.906Z,498.00
2023-03-05T08:42:01.936Z,499.00
2023-03-05T08:46:01.934Z,499.00
2023-03-05T08:50:01.964Z,499.00
2023-03-05T08:54:01.973Z,502.00
2023-03-05T08:58:02.034Z,505.00
2023-03-05T09:02:02.093Z,502.00
2023-03-05T09:06:02.026Z,500.00
2023-03-05T09:10:02.045Z,495.00
2023-03-05T09:14:02.064Z,493.00
2023-03-05T09:18:02.096Z,497.00
2023-03-05T09:22:02.104Z,500.00
2023-03-05T09:26:02.110Z,500.00
2023-03-05T09:30:02.154Z,497.00
2023-03-05T09:34:02.149Z,502.00
2023-03-05T09:38:02.148Z,502.00
2023-03-05T09:42:02.198Z,495.00
2023-03-05T09:46:02.212Z,495.00
2023-03-05T09:50:02.157Z,498.00
2023-03-05T09:54:03.032Z,498.00
2023-03-05T09:58:02.085Z,496.00
2023-03-05T10:02:02.074Z,496.00
2023-03-05T10:06:02.044Z,489.00
2023-03-05T10:10:02.018Z,494.00
2023-03-05T10:14:02.014Z,495.00
2023-03-05T10:18:01.966Z,492.00
2023-03-05T10:22:01.887Z,494.00
2023-03-05T10:26:01.859Z,494.00
2023-03-05T10:30:01.768Z,492.00
2023-03-05T10:34:01.732Z,492.00
2023-03-05T10:38:01.691Z,492.00
2023-03-05T10:42:01.615Z,489.00
2023-03-05T10:46:01.599Z,492.00
2023-03-05T10:50:01.504Z,493.00
2023-03-05T10:54:01.465Z,491.00
2023-03-05T10:58:01.401Z,494.00
2023-03-05T11:02:01.358Z,496.00
2023-03-05T11:06:01.212Z,491.00
2023-03-05T11:10:01.110Z,490.00
2023-03-05T11:14:01.024Z,490.00
2023-03-05T11:18:01.151Z,491.00
2023-03-05T11:22:00.729Z,487.00
2023-03-05T11:26:00.561Z,488.00
2023-03-05T11:30:00.480Z,487.00
2023-03-05T11:34:00.702Z,485.00
2023-03-05T11:38:00.205Z,493.00
2023-03-05T11:42:00.144Z,488.00
2023-03-05T11:46:00.000Z,492.00
2023-03-05T11:49:59.823Z,487.00
2023-03-05T11:53:59.684Z,488.00
2023-03-05T11:57:59.703Z,483.00
2023-03-05T12:01:59.455Z,482.00
2023-03-05T12:05:59.280Z,482.00
2023-03-05T12:09:59.098Z,481.00
2023-03-05T12:13:58.944Z,483.00
2023-03-05T12:17:58.796Z,479.00
2023-03-05T12:21:58.614Z,480.00
2023-03-05T12:25:58.432Z,482.00
2023-03-05T12:29:58.257Z,484.00
2023-03-05T12:33:58.066Z,483.00
2023-03-05T12:37:57.878Z,485.00
2023-03-05T12:41:57.675Z,483.00
2023-03-05T12:45:57.516Z,484.00
2023-03-05T12:49:57.310Z,484.00
2023-03-05T12:53:57.164Z,483.00
2023-03-05T12:57:56.944Z,484.00
2023-03-05T13:01:56.746Z,477.00
2023-03-05T13:05:56.574Z,480.00
2023-03-05T13:09:56.337Z,483.00
2023-03-05T13:13:56.157Z,484.00
2023-03-05T13:17:55.968Z,485.00
2023-03-05T13:21:55.765Z,483.00
2023-03-05T13:25:55.599Z,484.00
2023-03-05T13:29:55.395Z,485.00
2023-03-05T13:33:55.187Z,477.00
2023-03-05T13:37:54.990Z,480.00
2023-03-05T13:41:54.773Z,478.00
2023-03-05T13:45:54.618Z,483.00
2023-03-05T13:49:54.409Z,479.00
2023-03-05T13:53:54.164Z,480.00
2023-03-05T13:57:53.991Z,481.00
2023-03-05T14:01:53.822Z,480.00
2023-03-05T14:05:53.676Z,478.00
2023-03-05T14:09:53.462Z,483.00
2023-03-05T14:13:53.285Z,479.00
2023-03-05T14:17:53.095Z,482.00
2023-03-05T14:21:52.861Z,482.00
2023-03-05T14:25:52.650Z,485.00
2023-03-05T14:29:52.460Z,486.00
2023-03-05T14:33:52.249Z,483.00
2023-03-05T14:37:52.045Z,482.00
2023-03-05T14:41:51.832Z,482.00
2023-03-05T14:45:51.618Z,489.00
2023-03-05T14:49:51.409Z,483.00
2023-03-05T14:53:51.256Z,480.00
2023-03-05T14:57:50.975Z,484.00
2023-03-05T15:01:50.806Z,478.00
2023-03-05T15:05:50.664Z,480.00
2023-03-05T15:09:50.397Z,478.00
2023-03-05T15:13:50.162Z,483.00
2023-03-05T15:17:49.942Z,482.00
2023-03-05T15:21:49.748Z,478.00
2023-03-05T15:25:49.749Z,477.00
2023-03-05T15:29:49.411Z,478.00
2023-03-05T15:33:49.145Z,479.00
2023-03-05T15:37:49.010Z,478.00
2023-03-05T15:41:48.834Z,478.00
2023-03-05T15:45:48.695Z,475.00
2023-03-05T15:49:48.532Z,476.00
2023-03-05T15:53:48.374Z,479.00
2023-03-05T15:57:48.245Z,481.00
2023-03-05T16:01:48.131Z,481.00
2023-03-05T16:05:47.895Z,480.00
2023-03-05T16:09:47.797Z,485.00
2023-03-05T16:13:47.642Z,482.00
2023-03-05T16:17:47.551Z,478.00
2023-03-05T16:21:47.402Z,481.00
2023-03-05T16:25:47.288Z,475.00
2023-03-05T16:29:47.223Z,475.00
2023-03-05T16:33:47.069Z,473.00
2023-03-05T16:37:46.978Z,474.00
2023-03-05T16:41:46.861Z,477.00
2023-03-05T16:45:46.793Z,483.00
2023-03-05T16:49:46.640Z,480.00
2023-03-05T16:53:46.601Z,477.00
2023-03-05T16:57:46.525Z,474.00
2023-03-05T17:01:46.378Z,477.00
2023-03-05T17:05:46.310Z,481.00
2023-03-05T17:09:46.262Z,482.00
2023-03-05T17:13:48.763Z,477.00
2023-03-05T17:17:45.922Z,479.00
2023-03-05T17:21:45.692Z,481.00
2023-03-05T17:25:45.510Z,482.00
2023-03-05T17:29:45.311Z,480.00
2023-03-05T17:33:45.086Z,480.00
2023-03-05T17:37:44.920Z,482.00
2023-03-05T17:41:44.715Z,486.00
2023-03-05T17:45:44.545Z,481.00
2023-03-05T17:49:44.311Z,477.00
2023-03-05T17:53:44.148Z,478.00
2023-03-05T17:57:43.927Z,481.00
2023-03-05T18:01:43.703Z,481.00
2023-03-05T18:05:43.522Z,480.00
2023-03-05T18:09:43.334Z,476.00
2023-03-05T18:13:43.195Z,480.00
2023-03-05T18:17:43.137Z,475.00
2023-03-05T18:21:43.127Z,478.00
2023-03-05T18:25:43.175Z,473.00
2023-03-05T18:29:43.189Z,474.00
2023-03-05T18:33:43.216Z,475.00
2023-03-05T18:37:43.235Z,477.00
2023-03-05T18:41:43.251Z,478.00
2023-03-05T18:45:43.319Z,483.00
2023-03-05T18:49:43.288Z,479.00
2023-03-05T18:53:43.363Z,478.00
2023-03-05T18:57:43.395Z,480.00
2023-03-05T19:01:43.443Z,485.00
2023-03-05T19:05:43.462Z,484.00
2023-03-05T19:09:43.457Z,481.00
2023-03-05T19:13:43.463Z,483.00
2023-03-05T19:17:43.506Z,487.00
2023-03-05T19:21:43.493Z,487.00
2023-03-05T19:25:43.537Z,487.00
2023-03-05T19:29:43.603Z,487.00
2023-03-05T19:33:43.657Z,487.00
2023-03-05T19:37:43.601Z,484.00
2023-03-05T19:41:43.637Z,484.00
2023-03-05T19:45:43.637Z,489.00
2023-03-05T19:49:43.701Z,483.00
2023-03-05T19:53:43.682Z,479.00
2023-03-05T19:57:43.731Z,482.00
2023-03-05T20:01:43.843Z,485.00
2023-03-05T20:05:43.783Z,482.00
2023-03-05T20:09:43.832Z,484.00
2023-03-05T20:13:43.804Z,481.00
2023-03-05T20:17:43.830Z,478.00
2023-03-05T20:21:43.870Z,480.00
2023-03-05T20:25:43.870Z,477.00
2023-03-05T20:29:43.895Z,477.00
2023-03-05T20:33:43.925Z,477.00
2023-03-05T20:37:43.970Z,475.00
2023-03-05T20:41:44.034Z,478.00
2023-03-05T20:45:44.080Z,479.00
2023-03-05T20:49:44.409Z,480.00
2023-03-05T20:53:43.622Z,481.00
2023-03-05T20:57:43.427Z,479.00
2023-03-05T21:01:43.318Z,480.00
2023-03-05T21:05:43.060Z,483.00
2023-03-05T21:09:42.876Z,483.00
2023-03-05T21:13:42.694Z,483.00
2023-03-05T21:17:42.477Z,480.00
2023-03-05T21:21:42.447Z,477.00
2023-03-05T21:25:42.553Z,481.00
2023-03-05T21:29:42.248Z,480.00
2023-03-05T21:33:42.131Z,482.00
2023-03-05T21:37:41.849Z,479.00
2023-03-05T21:41:41.636Z,482.00
2023-03-05T21:45:41.501Z,482.00
2023-03-05T21:49:41.241Z,482.00
2023-03-05T21:53:41.029Z,478.00
2023-03-05T21:57:40.858Z,478.00
2023-03-05T22:01:40.647Z,479.00
2023-03-05T22:05:40.455Z,479.00
2023-03-05T22:09:40.432Z,478.00
2023-03-05T22:13:40.197Z,482.00
2023-03-05T22:17:40.000Z,489.00
2023-03-05T22:21:39.755Z,491.00
2023-03-05T22:25:39.578Z,490.00
2023-03-05T22:29:39.351Z,490.00
2023-03-05T22:33:39.149Z,489.00
2023-03-05T22:37:39.028Z,487.00
2023-03-05T22:41:38.720Z,487.00
2023-03-05T22:45:38.512Z,488.00
2023-03-05T22:49:38.434Z,484.00
2023-03-05T22:53:38.195Z,487.00
2023-03-05T22:57:38.036Z,490.00
2023-03-05T23:01:37.820Z,488.00
2023-03-05T23:05:37.639Z,486.00
2023-03-05T23:09:37.470Z,484.00
2023-03-05T23:13:37.217Z,484.00
2023-03-05T23:17:37.080Z,487.00
2023-03-05T23:21:36.875Z,485.00
2023-03-05T23:25:36.686Z,485.00
2023-03-05T23:29:36.535Z,485.00
2023-03-05T23:33:36.385Z,485.00
2023-03-05T23:37:36.164Z,488.00
2023-03-05T23:41:35.917Z,489.00
2023-03-05T23:45:35.709Z,494.00
2023-03-05T23:49:35.570Z,497.00
2023-03-05T23:53:35.318Z,494.00
2023-03-05T23:57:35.142Z,490.00
